sensor_id;sensor_type;location;lat;lon;timestamp;pressure;altitude;pressure_sealevel;temperature;humidity
31357;BME280;60001;48.404;11.738;2023-03-26T00:01:23;95827.88;;;7.87;75.06
31357;BME280;60001;48.404;11.738;2023-03-26T00:02:55;95813.00;;;7.76;74.95
31357;BME280;60001;48.404;11.738;2023-03-26T00:04:27;95814.13;;;7.80;75.06
31357;BME280;60001;48.404;11.738;2023-03-26T00:06:05;95816.00;;;7.84;74.86
31357;BME280;60001;48.404;11.738;2023-03-26T00:07:38;95812.56;;;7.84;74.83
31357;BME280;60001;48.404;11.738;2023-03-26T00:09:10;95809.47;;;7.87;74.66
31357;BME280;60001;48.404;11.738;2023-03-26T00:10:43;95805.00;;;7.87;74.99
31357;BME280;60001;48.404;11.738;2023-03-26T00:12:15;95807.91;;;7.91;74.86
31357;BME280;60001;48.404;11.738;2023-03-26T00:13:48;95804.25;;;7.92;74.30
31357;BME280;60001;48.404;11.738;2023-03-26T00:15:22;95805.03;;;7.92;74.68
31357;BME280;60001;48.404;11.738;2023-03-26T00:16:54;95812.94;;;7.92;74.59
31357;BME280;60001;48.404;11.738;2023-03-26T00:18:26;95800.78;;;7.86;74.35
31357;BME280;60001;48.404;11.738;2023-03-26T00:20:00;95806.34;;;7.90;74.61
31357;BME280;60001;48.404;11.738;2023-03-26T00:21:34;95796.63;;;7.90;74.47
31357;BME280;60001;48.404;11.738;2023-03-26T00:23:07;95796.06;;;7.88;74.33
31357;BME280;60001;48.404;11.738;2023-03-26T00:24:39;95806.59;;;7.88;74.48
31357;BME280;60001;48.404;11.738;2023-03-26T00:26:15;95796.81;;;7.84;74.64
31357;BME280;60001;48.404;11.738;2023-03-26T00:27:47;95809.16;;;7.83;74.18
31357;BME280;60001;48.404;11.738;2023-03-26T00:29:19;95814.91;;;7.80;74.75
31357;BME280;60001;48.404;11.738;2023-03-26T00:30:57;95810.13;;;7.77;74.23
31357;BME280;60001;48.404;11.738;2023-03-26T00:32:29;95819.31;;;7.75;74.37
31357;BME280;60001;48.404;11.738;2023-03-26T00:34:01;95810.09;;;7.72;74.55
31357;BME280;60001;48.404;11.738;2023-03-26T00:35:35;95812.16;;;7.70;74.75
31357;BME280;60001;48.404;11.738;2023-03-26T00:37:07;95813.44;;;7.67;74.67
31357;BME280;60001;48.404;11.738;2023-03-26T00:38:44;95794.38;;;7.55;74.57
31357;BME280;60001;48.404;11.738;2023-03-26T00:40:16;95808.38;;;7.61;74.26
31357;BME280;60001;48.404;11.738;2023-03-26T00:41:47;95804.41;;;7.58;74.44
31357;BME280;60001;48.404;11.738;2023-03-26T00:43:23;95811.47;;;7.58;74.75
31357;BME280;60001;48.404;11.738;2023-03-26T00:44:55;95802.50;;;7.54;74.23
31357;BME280;60001;48.404;11.738;2023-03-26T00:46:29;95801.41;;;7.50;74.51
31357;BME280;60001;48.404;11.738;2023-03-26T00:48:01;95802.44;;;7.49;74.75
31357;BME280;60001;48.404;11.738;2023-03-26T00:49:33;95799.03;;;7.48;74.37
31357;BME280;60001;48.404;11.738;2023-03-26T00:51:06;95802.94;;;7.46;74.38
31357;BME280;60001;48.404;11.738;2023-03-26T00:52:38;95792.69;;;7.44;74.33
31357;BME280;60001;48.404;11.738;2023-03-26T00:54:11;95800.91;;;7.31;74.73
31357;BME280;60001;48.404;11.738;2023-03-26T00:55:45;95796.50;;;7.36;74.75
31357;BME280;60001;48.404;11.738;2023-03-26T00:57:20;95800.50;;;7.39;74.52
31357;BME280;60001;48.404;11.738;2023-03-26T00:58:52;95798.66;;;7.39;74.83
31357;BME280;60001;48.404;11.738;2023-03-26T01:00:30;95796.31;;;7.43;74.48
31357;BME280;60001;48.404;11.738;2023-03-26T01:02:04;95801.03;;;7.41;74.68
31357;BME280;60001;48.404;11.738;2023-03-26T01:03:37;95791.31;;;7.41;74.56
31357;BME280;60001;48.404;11.738;2023-03-26T01:07:16;95796.63;;;7.47;74.92
31357;BME280;60001;48.404;11.738;2023-03-26T01:08:51;95791.38;;;7.47;74.75
31357;BME280;60001;48.404;11.738;2023-03-26T01:10:25;95794.00;;;7.47;75.01
31357;BME280;60001;48.404;11.738;2023-03-26T01:11:59;95788.75;;;7.47;75.04
31357;BME280;60001;48.404;11.738;2023-03-26T01:13:34;95788.75;;;7.47;74.90
31357;BME280;60001;48.404;11.738;2023-03-26T01:15:08;95782.97;;;7.45;74.88
31357;BME280;60001;48.404;11.738;2023-03-26T01:16:43;95786.38;;;7.45;74.94
31357;BME280;60001;48.404;11.738;2023-03-26T01:18:17;95788.50;;;7.48;74.76
31357;BME280;60001;48.404;11.738;2023-03-26T01:19:55;95792.19;;;7.47;74.63
31357;BME280;60001;48.404;11.738;2023-03-26T01:21:31;95780.34;;;7.45;74.71
31357;BME280;60001;48.404;11.738;2023-03-26T01:23:06;95788.25;;;7.50;74.53
31357;BME280;60001;48.404;11.738;2023-03-26T01:24:40;95784.84;;;7.49;74.70
31357;BME280;60001;48.404;11.738;2023-03-26T01:26:30;95782.78;;;7.51;74.84
31357;BME280;60001;48.404;11.738;2023-03-26T01:28:08;95783.78;;;7.50;74.96
31357;BME280;60001;48.404;11.738;2023-03-26T01:29:44;95780.09;;;7.46;74.65
31357;BME280;60001;48.404;11.738;2023-03-26T01:31:25;95780.34;;;7.45;74.84
31357;BME280;60001;48.404;11.738;2023-03-26T01:33:05;95782.19;;;7.44;74.58
31357;BME280;60001;48.404;11.738;2023-03-26T01:34:54;95785.81;;;7.43;74.54
31357;BME280;60001;48.404;11.738;2023-03-26T01:36:38;95786.59;;;7.43;75.11
31357;BME280;60001;48.404;11.738;2023-03-26T01:38:22;95784.06;;;7.49;74.81
31357;BME280;60001;48.404;11.738;2023-03-26T01:40:04;95789.31;;;7.49;74.47
31357;BME280;60001;48.404;11.738;2023-03-26T01:41:44;95781.66;;;7.47;74.71
31357;BME280;60001;48.404;11.738;2023-03-26T01:43:26;95788.50;;;7.48;74.71
31357;BME280;60001;48.404;11.738;2023-03-26T01:45:06;95793.50;;;7.50;74.61
31357;BME280;60001;48.404;11.738;2023-03-26T01:46:41;95784.38;;;7.52;74.64
31357;BME280;60001;48.404;11.738;2023-03-26T01:48:14;95782.28;;;7.54;74.39
31357;BME280;60001;48.404;11.738;2023-03-26T01:49:46;95776.22;;;7.54;74.74
31357;BME280;60001;48.404;11.738;2023-03-26T01:51:26;95782.03;;;7.56;74.13
31357;BME280;60001;48.404;11.738;2023-03-26T01:52:59;95779.91;;;7.53;74.24
31357;BME280;60001;48.404;11.738;2023-03-26T01:54:32;95773.06;;;7.52;74.09
31357;BME280;60001;48.404;11.738;2023-03-26T01:56:11;95772.50;;;7.50;74.07
31357;BME280;60001;48.404;11.738;2023-03-26T01:57:54;95770.13;;;7.48;74.24
31357;BME280;60001;48.404;11.738;2023-03-26T01:59:44;95767.19;;;7.45;74.43
31357;BME280;60001;48.404;11.738;2023-03-26T02:01:27;95763.78;;;7.44;74.13
31357;BME280;60001;48.404;11.738;2023-03-26T02:03:12;95757.72;;;7.43;74.12
31357;BME280;60001;48.404;11.738;2023-03-26T02:04:54;95758.22;;;7.40;74.18
31357;BME280;60001;48.404;11.738;2023-03-26T02:06:36;95748.94;;;7.33;74.36
31357;BME280;60001;48.404;11.738;2023-03-26T02:08:19;95757.34;;;7.35;74.06
31357;BME280;60001;48.404;11.738;2023-03-26T02:09:56;95757.06;;;7.31;74.37
31357;BME280;60001;48.404;11.738;2023-03-26T02:11:30;95754.34;;;7.26;74.46
31357;BME280;60001;48.404;11.738;2023-03-26T02:13:03;95757.25;;;7.25;74.26
31357;BME280;60001;48.404;11.738;2023-03-26T02:14:35;95758.28;;;7.24;74.52
31357;BME280;60001;48.404;11.738;2023-03-26T02:16:10;95758.75;;;7.21;74.03
31357;BME280;60001;48.404;11.738;2023-03-26T02:17:43;95759.25;;;7.18;74.43
31357;BME280;60001;48.404;11.738;2023-03-26T02:19:14;95752.88;;;7.13;74.24
31357;BME280;60001;48.404;11.738;2023-03-26T02:20:51;95746.75;;;7.08;74.65
31357;BME280;60001;48.404;11.738;2023-03-26T02:22:23;95750.44;;;7.07;74.53
31357;BME280;60001;48.404;11.738;2023-03-26T02:23:59;95742.47;;;7.02;74.95
31357;BME280;60001;48.404;11.738;2023-03-26T02:25:33;95744.56;;;7.00;74.41
31357;BME280;60001;48.404;11.738;2023-03-26T02:27:08;95738.22;;;6.96;74.92
31357;BME280;60001;48.404;11.738;2023-03-26T02:28:41;95739.97;;;6.90;75.08
31357;BME280;60001;48.404;11.738;2023-03-26T02:30:17;95737.34;;;6.90;74.74
31357;BME280;60001;48.404;11.738;2023-03-26T02:31:49;95735.19;;;6.87;74.97
31357;BME280;60001;48.404;11.738;2023-03-26T02:33:20;95730.19;;;6.85;75.08
31357;BME280;60001;48.404;11.738;2023-03-26T02:34:52;95731.47;;;6.83;74.70
31357;BME280;60001;48.404;11.738;2023-03-26T02:36:25;95730.63;;;6.77;74.98
31357;BME280;60001;48.404;11.738;2023-03-26T02:37:57;95737.69;;;6.77;75.21
31357;BME280;60001;48.404;11.738;2023-03-26T02:39:29;95731.91;;;6.75;74.92
31357;BME280;60001;48.404;11.738;2023-03-26T02:41:01;95737.94;;;6.75;75.41
31357;BME280;60001;48.404;11.738;2023-03-26T02:42:35;95733.94;;;6.73;75.07
31357;BME280;60001;48.404;11.738;2023-03-26T02:44:06;95722.56;;;6.67;75.32
31357;BME280;60001;48.404;11.738;2023-03-26T02:45:38;95724.66;;;6.65;75.18
31357;BME280;60001;48.404;11.738;2023-03-26T02:47:09;95719.66;;;6.64;75.70
31357;BME280;60001;48.404;11.738;2023-03-26T02:48:41;95722.03;;;6.65;75.69
31357;BME280;60001;48.404;11.738;2023-03-26T02:50:13;95729.91;;;6.65;75.84
31357;BME280;60001;48.404;11.738;2023-03-26T02:51:45;95724.66;;;6.65;76.34
31357;BME280;60001;48.404;11.738;2023-03-26T02:53:17;95727.28;;;6.65;76.00
31357;BME280;60001;48.404;11.738;2023-03-26T02:54:48;95723.06;;;6.64;76.73
31357;BME280;60001;48.404;11.738;2023-03-26T02:56:20;95723.63;;;6.66;76.63
31357;BME280;60001;48.404;11.738;2023-03-26T02:57:53;95722.28;;;6.64;76.27
31357;BME280;60001;48.404;11.738;2023-03-26T02:59:25;95718.16;;;6.68;76.00
31357;BME280;60001;48.404;11.738;2023-03-26T03:00:57;95721.78;;;6.67;76.76
31357;BME280;60001;48.404;11.738;2023-03-26T03:02:32;95719.50;;;6.70;76.27
31357;BME280;60001;48.404;11.738;2023-03-26T03:04:04;95710.50;;;6.66;76.37
31357;BME280;60001;48.404;11.738;2023-03-26T03:05:38;95716.88;;;6.70;76.23
31357;BME280;60001;48.404;11.738;2023-03-26T03:07:12;95715.81;;;6.71;76.07
31357;BME280;60001;48.404;11.738;2023-03-26T03:08:45;95695.88;;;6.53;76.43
31357;BME280;60001;48.404;11.738;2023-03-26T03:10:17;95726.31;;;6.71;76.48
31357;BME280;60001;48.404;11.738;2023-03-26T03:11:51;95715.34;;;6.74;76.76
31357;BME280;60001;48.404;11.738;2023-03-26T03:13:24;95702.00;;;6.76;76.20
31357;BME280;60001;48.404;11.738;2023-03-26T03:14:56;95700.97;;;6.77;76.19
31357;BME280;60001;48.404;11.738;2023-03-26T03:16:28;95687.94;;;6.65;76.17
31357;BME280;60001;48.404;11.738;2023-03-26T03:18:00;95703.09;;;6.80;76.08
31357;BME280;60001;48.404;11.738;2023-03-26T03:19:32;95700.47;;;6.80;76.04
31357;BME280;60001;48.404;11.738;2023-03-26T03:21:04;95694.97;;;6.81;76.22
31357;BME280;60001;48.404;11.738;2023-03-26T03:22:36;95694.75;;;6.83;76.29
31357;BME280;60001;48.404;11.738;2023-03-26T03:24:09;95695.78;;;6.82;76.38
31357;BME280;60001;48.404;11.738;2023-03-26T03:25:43;95696.09;;;6.85;75.79
31357;BME280;60001;48.404;11.738;2023-03-26T03:27:14;95691.88;;;6.84;75.71
31357;BME280;60001;48.404;11.738;2023-03-26T03:28:49;95689.97;;;6.80;76.19
31357;BME280;60001;48.404;11.738;2023-03-26T03:30:20;95686.47;;;6.74;75.68
31357;BME280;60001;48.404;11.738;2023-03-26T03:31:52;95681.56;;;6.78;75.79
31357;BME280;60001;48.404;11.738;2023-03-26T03:33:24;95679.22;;;6.81;75.64
31357;BME280;60001;48.404;11.738;2023-03-26T03:34:55;95676.84;;;6.80;75.71
31357;BME280;60001;48.404;11.738;2023-03-26T03:36:27;95667.63;;;6.77;75.57
31357;BME280;60001;48.404;11.738;2023-03-26T03:37:59;95664.75;;;6.79;75.24
31357;BME280;60001;48.404;11.738;2023-03-26T03:39:30;95673.69;;;6.78;75.42
31357;BME280;60001;48.404;11.738;2023-03-26T03:41:02;95669.72;;;6.75;75.49
31357;BME280;60001;48.404;11.738;2023-03-26T03:42:34;95673.13;;;6.76;75.81
31357;BME280;60001;48.404;11.738;2023-03-26T03:44:07;95669.72;;;6.75;75.40
31357;BME280;60001;48.404;11.738;2023-03-26T03:45:38;95668.34;;;6.73;75.50
31357;BME280;60001;48.404;11.738;2023-03-26T03:47:10;95659.69;;;6.72;75.80
31357;BME280;60001;48.404;11.738;2023-03-26T03:48:43;95661.78;;;6.70;75.21
31357;BME280;60001;48.404;11.738;2023-03-26T03:50:19;95653.56;;;6.67;75.25
31357;BME280;60001;48.404;11.738;2023-03-26T03:51:51;95662.75;;;6.64;75.53
31357;BME280;60001;48.404;11.738;2023-03-26T03:53:24;95665.59;;;6.63;75.57
31357;BME280;60001;48.404;11.738;2023-03-26T03:54:56;95661.63;;;6.60;75.36
31357;BME280;60001;48.404;11.738;2023-03-26T03:56:29;95654.25;;;6.57;75.37
31357;BME280;60001;48.404;11.738;2023-03-26T03:58:01;95653.91;;;6.53;75.51
31357;BME280;60001;48.404;11.738;2023-03-26T03:59:34;95655.47;;;6.49;75.74
31357;BME280;60001;48.404;11.738;2023-03-26T04:01:06;95659.91;;;6.49;75.73
31357;BME280;60001;48.404;11.738;2023-03-26T04:02:38;95655.91;;;6.46;75.83
31357;BME280;60001;48.404;11.738;2023-03-26T04:04:12;95660.88;;;6.43;76.23
31357;BME280;60001;48.404;11.738;2023-03-26T04:05:45;95656.66;;;6.42;75.89
31357;BME280;60001;48.404;11.738;2023-03-26T04:07:18;95655.53;;;6.38;75.80
31357;BME280;60001;48.404;11.738;2023-03-26T04:08:51;95648.09;;;6.29;76.14
31357;BME280;60001;48.404;11.738;2023-03-26T04:10:22;95651.03;;;6.33;75.92
31357;BME280;60001;48.404;11.738;2023-03-26T04:11:54;95654.91;;;6.30;76.31
31357;BME280;60001;48.404;11.738;2023-03-26T04:13:25;95634.28;;;6.17;76.54
31357;BME280;60001;48.404;11.738;2023-03-26T04:14:58;95662.25;;;6.28;76.60
31357;BME280;60001;48.404;11.738;2023-03-26T04:16:29;95651.13;;;6.21;76.00
31357;BME280;60001;48.404;11.738;2023-03-26T04:18:01;95662.69;;;6.25;76.29
31357;BME280;60001;48.404;11.738;2023-03-26T04:19:33;95655.88;;;6.24;76.38
31357;BME280;60001;48.404;11.738;2023-03-26T04:21:06;95656.91;;;6.23;77.16
31357;BME280;60001;48.404;11.738;2023-03-26T04:22:38;95652.16;;;6.20;76.69
31357;BME280;60001;48.404;11.738;2023-03-26T04:24:10;95646.41;;;6.23;77.11
31357;BME280;60001;48.404;11.738;2023-03-26T04:25:45;95645.63;;;6.23;77.48
31357;BME280;60001;48.404;11.738;2023-03-26T04:27:21;95648.50;;;6.21;77.25
31357;BME280;60001;48.404;11.738;2023-03-26T04:28:59;95643.00;;;6.23;77.36
31357;BME280;60001;48.404;11.738;2023-03-26T04:30:34;95646.41;;;6.23;77.31
31357;BME280;60001;48.404;11.738;2023-03-26T04:32:12;95651.91;;;6.22;77.66
31357;BME280;60001;48.404;11.738;2023-03-26T04:33:50;95638.56;;;6.23;77.73
31357;BME280;60001;48.404;11.738;2023-03-26T04:35:23;95630.69;;;6.23;77.45
31357;BME280;60001;48.404;11.738;2023-03-26T04:36:54;95628.06;;;6.23;77.40
31357;BME280;60001;48.404;11.738;2023-03-26T04:38:29;95626.25;;;6.24;77.70
31357;BME280;60001;48.404;11.738;2023-03-26T04:40:03;95629.66;;;6.24;77.72
31357;BME280;60001;48.404;11.738;2023-03-26T04:41:38;95630.22;;;6.26;77.72
31357;BME280;60001;48.404;11.738;2023-03-26T04:43:12;95631.81;;;6.27;77.60
31357;BME280;60001;48.404;11.738;2023-03-26T04:44:43;95634.97;;;6.29;78.01
31357;BME280;60001;48.404;11.738;2023-03-26T04:46:16;95636.31;;;6.32;77.48
31357;BME280;60001;48.404;11.738;2023-03-26T04:47:51;95633.47;;;6.34;77.58
31357;BME280;60001;48.404;11.738;2023-03-26T04:49:22;95635.59;;;6.37;77.78
31357;BME280;60001;48.404;11.738;2023-03-26T04:50:56;95634.56;;;6.38;76.97
31357;BME280;60001;48.404;11.738;2023-03-26T04:52:28;95634.31;;;6.39;77.09
31357;BME280;60001;48.404;11.738;2023-03-26T04:53:59;95635.09;;;6.40;77.19
31357;BME280;60001;48.404;11.738;2023-03-26T04:55:37;95631.47;;;6.41;77.41
31357;BME280;60001;48.404;11.738;2023-03-26T04:57:18;95628.63;;;6.42;77.02
31357;BME280;60001;48.404;11.738;2023-03-26T04:58:52;95630.19;;;6.43;77.26
31357;BME280;60001;48.404;11.738;2023-03-26T05:00:26;95629.16;;;6.44;77.42
31357;BME280;60001;48.404;11.738;2023-03-26T05:02:01;95628.69;;;6.47;76.95
31357;BME280;60001;48.404;11.738;2023-03-26T05:03:37;95630.03;;;6.50;77.72
31357;BME280;60001;48.404;11.738;2023-03-26T05:05:10;95624.78;;;6.50;77.06
31357;BME280;60001;48.404;11.738;2023-03-26T05:06:41;95620.06;;;6.52;77.33
31357;BME280;60001;48.404;11.738;2023-03-26T05:08:13;95616.41;;;6.53;77.18
31357;BME280;60001;48.404;11.738;2023-03-26T05:09:45;95610.16;;;6.54;76.96
31357;BME280;60001;48.404;11.738;2023-03-26T05:11:16;95609.91;;;6.55;76.81
31357;BME280;60001;48.404;11.738;2023-03-26T05:12:51;95598.63;;;6.55;77.30
31357;BME280;60001;48.404;11.738;2023-03-26T05:14:23;95603.63;;;6.56;77.30
31357;BME280;60001;48.404;11.738;2023-03-26T05:15:55;95602.34;;;6.59;77.30
31357;BME280;60001;48.404;11.738;2023-03-26T05:17:28;95590.56;;;6.62;77.39
31357;BME280;60001;48.404;11.738;2023-03-26T05:19:00;95592.16;;;6.63;77.52
31357;BME280;60001;48.404;11.738;2023-03-26T05:20:32;95600.56;;;6.65;77.47
31357;BME280;60001;48.404;11.738;2023-03-26T05:22:03;95589.81;;;6.66;77.35
31357;BME280;60001;48.404;11.738;2023-03-26T05:23:34;95596.44;;;6.69;77.47
31357;BME280;60001;48.404;11.738;2023-03-26T05:25:07;95593.25;;;6.67;77.22
31357;BME280;60001;48.404;11.738;2023-03-26T05:26:38;95601.44;;;6.70;77.44
31357;BME280;60001;48.404;11.738;2023-03-26T05:28:10;95600.13;;;6.73;77.70
31357;BME280;60001;48.404;11.738;2023-03-26T05:29:40;95597.84;;;6.76;77.48
31357;BME280;60001;48.404;11.738;2023-03-26T05:31:12;95593.13;;;6.78;77.55
31357;BME280;60001;48.404;11.738;2023-03-26T05:32:47;95590.75;;;6.77;77.56
31357;BME280;60001;48.404;11.738;2023-03-26T05:34:18;95587.94;;;6.83;77.69
31357;BME280;60001;48.404;11.738;2023-03-26T05:36:00;95582.69;;;6.83;77.69
31357;BME280;60001;48.404;11.738;2023-03-26T05:37:32;95574.56;;;6.85;77.38
31357;BME280;60001;48.404;11.738;2023-03-26T05:39:04;95581.16;;;6.87;77.38
31357;BME280;60001;48.404;11.738;2023-03-26T05:40:36;95576.47;;;6.90;77.37
31357;BME280;60001;48.404;11.738;2023-03-26T05:42:07;95575.44;;;6.91;77.44
31357;BME280;60001;48.404;11.738;2023-03-26T05:43:40;95570.47;;;6.94;77.78
31357;BME280;60001;48.404;11.738;2023-03-26T05:45:14;95566.00;;;6.95;77.67
31357;BME280;60001;48.404;11.738;2023-03-26T05:46:46;95558.13;;;6.95;77.51
31357;BME280;60001;48.404;11.738;2023-03-26T05:48:19;95561.34;;;6.97;77.72
31357;BME280;60001;48.404;11.738;2023-03-26T05:49:51;95556.88;;;6.97;77.51
31357;BME280;60001;48.404;11.738;2023-03-26T05:51:23;95560.03;;;6.99;77.56
31357;BME280;60001;48.404;11.738;2023-03-26T05:52:55;95555.09;;;7.03;77.28
31357;BME280;60001;48.404;11.738;2023-03-26T05:54:27;95554.31;;;7.02;77.20
31357;BME280;60001;48.404;11.738;2023-03-26T05:55:59;95550.88;;;7.02;77.44
31357;BME280;60001;48.404;11.738;2023-03-26T05:57:31;95538.06;;;7.05;76.98
31357;BME280;60001;48.404;11.738;2023-03-26T05:59:02;95537.78;;;7.07;77.21
31357;BME280;60001;48.404;11.738;2023-03-26T06:00:34;95533.41;;;7.12;77.51
31357;BME280;60001;48.404;11.738;2023-03-26T06:02:08;95531.88;;;7.17;77.21
31357;BME280;60001;48.404;11.738;2023-03-26T06:03:44;95531.91;;;7.22;77.17
31357;BME280;60001;48.404;11.738;2023-03-26T06:05:16;95530.13;;;7.27;76.90
31357;BME280;60001;48.404;11.738;2023-03-26T06:06:48;95534.88;;;7.30;76.77
31357;BME280;60001;48.404;11.738;2023-03-26T06:08:22;95532.25;;;7.30;76.37
31357;BME280;60001;48.404;11.738;2023-03-26T06:09:53;95530.16;;;7.32;76.47
31357;BME280;60001;48.404;11.738;2023-03-26T06:11:25;95529.13;;;7.33;75.69
31357;BME280;60001;48.404;11.738;2023-03-26T06:12:57;95527.00;;;7.30;75.55
31357;BME280;60001;48.404;11.738;2023-03-26T06:14:29;95526.75;;;7.32;75.30
31357;BME280;60001;48.404;11.738;2023-03-26T06:16:01;95524.66;;;7.34;75.76
31357;BME280;60001;48.404;11.738;2023-03-26T06:17:31;95524.91;;;7.32;75.48
31357;BME280;60001;48.404;11.738;2023-03-26T06:19:04;95513.63;;;7.32;75.42
31357;BME280;60001;48.404;11.738;2023-03-26T06:20:36;95518.63;;;7.33;75.68
31357;BME280;60001;48.404;11.738;2023-03-26T06:22:07;95514.94;;;7.34;75.54
31357;BME280;60001;48.404;11.738;2023-03-26T06:23:39;95512.06;;;7.36;75.42
31357;BME280;60001;48.404;11.738;2023-03-26T06:25:10;95516.84;;;7.39;75.34
31357;BME280;60001;48.404;11.738;2023-03-26T06:26:42;95507.13;;;7.39;74.84
31357;BME280;60001;48.404;11.738;2023-03-26T06:28:14;95501.88;;;7.39;75.23
31357;BME280;60001;48.404;11.738;2023-03-26T06:29:46;95504.81;;;7.48;75.22
31357;BME280;60001;48.404;11.738;2023-03-26T06:31:18;95506.97;;;7.51;75.22
31357;BME280;60001;48.404;11.738;2023-03-26T06:32:50;95496.72;;;7.55;75.17
31357;BME280;60001;48.404;11.738;2023-03-26T06:34:23;95499.88;;;7.57;74.78
31357;BME280;60001;48.404;11.738;2023-03-26T06:35:55;95500.97;;;7.61;74.37
31357;BME280;60001;48.404;11.738;2023-03-26T06:37:27;95491.00;;;7.63;74.33
31357;BME280;60001;48.404;11.738;2023-03-26T06:38:58;95494.72;;;7.67;74.17
31357;BME280;60001;48.404;11.738;2023-03-26T06:40:31;95492.09;;;7.67;73.71
31357;BME280;60001;48.404;11.738;2023-03-26T06:42:03;95498.41;;;7.71;73.67
31357;BME280;60001;48.404;11.738;2023-03-26T06:43:35;95493.44;;;7.75;73.44
31357;BME280;60001;48.404;11.738;2023-03-26T06:45:09;95491.34;;;7.77;73.24
31357;BME280;60001;48.404;11.738;2023-03-26T06:46:40;95492.16;;;7.77;72.70
31357;BME280;60001;48.404;11.738;2023-03-26T06:48:12;95492.69;;;7.79;72.71
31357;BME280;60001;48.404;11.738;2023-03-26T06:49:45;95487.19;;;7.81;72.80
31357;BME280;60001;48.404;11.738;2023-03-26T06:51:18;95472.97;;;7.77;72.71
31357;BME280;60001;48.404;11.738;2023-03-26T06:52:52;95481.97;;;7.86;72.22
31357;BME280;60001;48.404;11.738;2023-03-26T06:54:24;95478.81;;;7.89;72.59
31357;BME280;60001;48.404;11.738;2023-03-26T06:55:56;95480.13;;;7.91;72.17
31357;BME280;60001;48.404;11.738;2023-03-26T06:57:28;95481.72;;;7.92;71.91
31357;BME280;60001;48.404;11.738;2023-03-26T06:59:00;95462.25;;;7.88;71.98
31357;BME280;60001;48.404;11.738;2023-03-26T07:00:32;95473.34;;;7.95;71.55
31357;BME280;60001;48.404;11.738;2023-03-26T07:02:04;95473.84;;;7.92;71.26
31357;BME280;60001;48.404;11.738;2023-03-26T07:03:36;95481.22;;;7.95;71.64
31357;BME280;60001;48.404;11.738;2023-03-26T07:05:09;95475.88;;;7.85;71.52
31357;BME280;60001;48.404;11.738;2023-03-26T07:06:41;95478.06;;;7.93;71.57
31357;BME280;60001;48.404;11.738;2023-03-26T07:08:13;95474.41;;;8.00;71.71
31357;BME280;60001;48.404;11.738;2023-03-26T07:09:45;95475.25;;;8.10;72.15
31357;BME280;60001;48.404;11.738;2023-03-26T07:11:17;95468.19;;;8.16;71.54
31357;BME280;60001;48.404;11.738;2023-03-26T07:12:50;95460.81;;;8.18;72.00
31357;BME280;60001;48.404;11.738;2023-03-26T07:14:23;95467.69;;;8.24;71.76
31357;BME280;60001;48.404;11.738;2023-03-26T07:15:57;95458.50;;;8.32;71.54
31357;BME280;60001;48.404;11.738;2023-03-26T07:17:29;95455.16;;;8.36;71.46
31357;BME280;60001;48.404;11.738;2023-03-26T07:19:00;95445.44;;;8.42;71.33
31357;BME280;60001;48.404;11.738;2023-03-26T07:20:34;95440.69;;;8.44;71.42
31357;BME280;60001;48.404;11.738;2023-03-26T07:22:05;95447.31;;;8.51;71.40
31357;BME280;60001;48.404;11.738;2023-03-26T07:23:38;95443.13;;;8.56;71.41
31357;BME280;60001;48.404;11.738;2023-03-26T07:25:12;95440.22;;;8.62;71.48
31357;BME280;60001;48.404;11.738;2023-03-26T07:26:54;95439.16;;;8.68;71.36
31357;BME280;60001;48.404;11.738;2023-03-26T07:28:35;95435.22;;;8.76;70.97
31357;BME280;60001;48.404;11.738;2023-03-26T07:30:14;95441.31;;;8.82;70.92
31357;BME280;60001;48.404;11.738;2023-03-26T07:31:54;95432.13;;;8.84;70.27
31357;BME280;60001;48.404;11.738;2023-03-26T07:33:37;95432.91;;;8.85;70.00
31357;BME280;60001;48.404;11.738;2023-03-26T07:35:20;95433.16;;;8.88;70.03
31357;BME280;60001;48.404;11.738;2023-03-26T07:37:03;95420.25;;;8.87;69.71
31357;BME280;60001;48.404;11.738;2023-03-26T07:38:53;95419.47;;;8.96;70.17
31357;BME280;60001;48.404;11.738;2023-03-26T07:40:50;95413.94;;;9.03;70.34
31357;BME280;60001;48.404;11.738;2023-03-26T07:42:36;95402.63;;;9.07;69.86
31357;BME280;60001;48.404;11.738;2023-03-26T07:46:13;95406.06;;;9.18;69.73
31357;BME280;60001;48.404;11.738;2023-03-26T07:47:46;95404.47;;;9.22;69.17
31357;BME280;60001;48.404;11.738;2023-03-26T07:49:19;95406.03;;;9.28;69.32
31357;BME280;60001;48.404;11.738;2023-03-26T07:50:52;95397.88;;;9.30;69.18
31357;BME280;60001;48.404;11.738;2023-03-26T07:52:26;95403.66;;;9.37;69.09
31357;BME280;60001;48.404;11.738;2023-03-26T07:53:58;95407.09;;;9.43;69.06
31357;BME280;60001;48.404;11.738;2023-03-26T07:55:30;95404.44;;;9.48;69.01
31357;BME280;60001;48.404;11.738;2023-03-26T07:57:06;95403.91;;;9.51;69.00
31357;BME280;60001;48.404;11.738;2023-03-26T07:58:58;95393.63;;;9.54;68.82
31357;BME280;60001;48.404;11.738;2023-03-26T08:00:39;95395.22;;;9.45;67.73
31357;BME280;60001;48.404;11.738;2023-03-26T08:02:42;95392.59;;;9.35;68.60
31357;BME280;60001;48.404;11.738;2023-03-26T08:06:25;95375.19;;;9.44;68.49
31357;BME280;60001;48.404;11.738;2023-03-26T08:08:13;95369.69;;;9.46;68.44
31357;BME280;60001;48.404;11.738;2023-03-26T08:09:58;95371.50;;;9.50;68.78
31357;BME280;60001;48.404;11.738;2023-03-26T08:11:43;95358.31;;;9.50;68.63
31357;BME280;60001;48.404;11.738;2023-03-26T08:13:24;95355.97;;;9.54;68.78
31357;BME280;60001;48.404;11.738;2023-03-26T08:15:04;95357.28;;;9.36;68.66
31357;BME280;60001;48.404;11.738;2023-03-26T08:16:47;95344.63;;;9.43;69.21
31357;BME280;60001;48.404;11.738;2023-03-26T08:18:36;95339.88;;;9.50;69.26
31357;BME280;60001;48.404;11.738;2023-03-26T08:20:25;95341.47;;;9.46;68.81
31357;BME280;60001;48.404;11.738;2023-03-26T08:22:10;95342.78;;;9.39;68.75
31357;BME280;60001;48.404;11.738;2023-03-26T08:23:57;95336.22;;;9.41;69.66
31357;BME280;60001;48.404;11.738;2023-03-26T08:25:33;95334.88;;;9.44;69.54
31357;BME280;60001;48.404;11.738;2023-03-26T08:27:13;95333.81;;;9.50;69.90